M I D A S
Marine Information and Data Acquisition System
Tripno 322 of the Zeeleeuw from 2002-03-20 09:00:00 to 2002-03-20 13:32:00
Back to CruiseResearch ActivitiesStationsMapUnderway DataData graphs

EquipmentUnitsComment
TimeDGPSUTC
LatitudeDGPSDM.mWGS84
LongitudeDGPSDM.mWGS84
TemperatureSBE03/SBE38deg celciusITS90
ConductivitySBE21S/mITS90
SalinitySBE21 Practical Salinity Units
ChlorophylAChelsea fluorimeterg/lCalibrated in Aceton
Missing or incorrect values are displayed as -999
Sea surface data collected by the RV Zeeleeuw from 2002-03-20 09:00:00 to 2002-03-20 13:32:00
Time Latitude Longitude Temperature Conductivity Salinity ChlorophylA
2002-03-20 09:01:02 51°13.597 2°56.098 15.320495 0.017233 0.090556  
2002-03-20 09:02:03 51°13.596 2°56.098 15.327552 0.017233 0.090575  
2002-03-20 09:03:03 51°13.597 2°56.098 15.307417 0.017233 0.09059  
2002-03-20 09:04:03 51°13.596 2°56.099 15.351663 0.017233 0.090603  
2002-03-20 09:05:03 51°13.595 2°56.099 15.36789 0.017233 0.090609  
2002-03-20 09:06:03 51°13.605 2°56.06 15.398604 0.017233 0.090615  
2002-03-20 09:07:02 51°13.623 2°55.999 15.341924 0.017233 0.090627  
2002-03-20 09:08:03 51°13.638 2°55.967 15.444778 0.017233 0.090639  
2002-03-20 09:09:03 51°13.66 2°55.891 15.484183 0.017233 0.09066  
2002-03-20 09:10:03 51°13.681 2°55.786 15.392333 0.017233 0.090684  
2002-03-20 09:11:03 51°13.706 2°55.767 15.250011 0.017233 0.090711  
2002-03-20 09:12:03 51°13.735 2°55.757 15.389002 0.017233 0.090706  
2002-03-20 09:13:03 51°13.697 2°55.816 15.429391 0.017233 0.090725  
2002-03-20 09:14:03 51°13.679 2°55.845 15.429218 0.017233 0.090738  
2002-03-20 09:15:03 51°13.675 2°55.856 15.41802 0.017233 0.090758  
2002-03-20 09:16:02 51°13.677 2°55.855 15.463663 0.017233 0.090778  
2002-03-20 09:17:03 51°13.696 2°55.832 15.436091 0.017233 0.090803  
2002-03-20 09:18:02 51°13.742 2°55.749 12.104987 0.017233 0.090954  
2002-03-20 09:19:02 51°13.812 2°55.647 10.117888 1.923798 16.327686  
2002-03-20 09:20:03 51°13.909 2°55.575 10.12182 1.827169 15.724409  
2002-03-20 09:21:03 51°14.039 2°55.487 10.099533 2.09558 18.372884  
2002-03-20 09:22:03 51°14.162 2°55.388 10.438313 2.315019 20.536983  
2002-03-20 09:23:03 51°14.274 2°55.241 10.275845 2.299726 20.409523  
2002-03-20 09:24:03 51°14.368 2°55.058 10.119152 2.095381 18.413851  
2002-03-20 09:25:03 51°14.39 2°54.827 9.82721 2.149329 18.945011  
2002-03-20 09:26:02 51°14.364 2°54.555 9.816957 2.681323 24.223946  
2002-03-20 09:27:03 51°14.29 2°54.269 9.703225 3.128415 28.766073  
2002-03-20 09:28:03 51°14.21 2°53.975 9.798941 3.308974 30.643805  
2002-03-20 09:29:02 51°14.106 2°53.673 9.757244 3.308373 30.652527  
2002-03-20 09:30:01 51°13.997 2°53.355 9.395776 3.365065 31.244677  
2002-03-20 09:31:02 51°13.883 2°53.023 9.953165 3.406636 31.666469  
2002-03-20 09:32:03 51°13.77 2°52.689 9.872292 3.442498 32.04032  
2002-03-20 09:33:03 51°13.658 2°52.36 9.840846 3.466141 32.289176  
2002-03-20 09:34:03 51°13.546 2°52.031 9.829044 3.48788 32.514892  
2002-03-20 09:35:02 51°13.436 2°51.707 9.898556 3.505213 32.709564  
2002-03-20 09:36:03 51°13.323 2°51.372 9.853398 3.509821 32.761899  
2002-03-20 09:37:03 51°13.211 2°51.043 9.356804 3.510623 32.77629  
2002-03-20 09:38:03 51°13.098 2°50.715 9.972969 3.507617 32.742081  
2002-03-20 09:39:03 51°12.993 2°50.381 9.719337 3.504311 32.719938  
2002-03-20 09:40:03 51°12.889 2°50.045 9.727155 3.496798 32.654134  
2002-03-20 09:41:03 51°12.781 2°49.712 9.310368 3.493792 32.61388  
2002-03-20 09:42:02 51°12.678 2°49.38 9.277795 3.486679 32.533349  
2002-03-20 09:43:03 51°12.604 2°49.102 9.266507 3.488782 32.552887  
2002-03-20 09:44:03 51°12.591 2°48.956 9.687298 3.488983 32.569314  
2002-03-20 09:45:03 51°12.585 2°48.953 9.739588 3.489885 32.586223  
2002-03-20 09:46:03 51°12.581 2°48.929 8.687421 3.49259 32.643825  
2002-03-20 09:47:03 51°12.577 2°48.915 8.732058 3.485477 32.551089  
2002-03-20 09:48:03 51°12.575 2°48.903 8.733637 3.487881 32.57376  
2002-03-20 09:49:02 51°12.58 2°48.872 8.699672 3.488683 32.580561  
2002-03-20 09:50:03 51°12.586 2°48.836 8.730002 3.490085 32.594353  
2002-03-20 09:51:02 51°12.592 2°48.8 8.687756 3.490386 32.605796  
2002-03-20 09:52:02 51°12.605 2°48.765 8.684023 3.49239 32.631132  
2002-03-20 09:53:02 51°12.623 2°48.736 8.674019 3.494393 32.654202  
2002-03-20 09:54:02 51°12.644 2°48.718 8.66904 3.4978 32.698674  
2002-03-20 09:55:03 51°12.667 2°48.715 8.666359 3.499803 32.717961  
2002-03-20 09:56:03 51°12.687 2°48.726 8.696848 3.501306 32.740413  
2002-03-20 09:57:03 51°12.702 2°48.75 8.64826 3.507017 32.806601  
2002-03-20 09:58:03 51°12.711 2°48.785 8.651229 3.514832 32.897002  
2002-03-20 09:59:03 51°12.721 2°48.818 8.697566 3.514431 32.885953  
2002-03-20 10:00:03 51°12.729 2°48.845 8.659034 3.511826 32.856582  
2002-03-20 10:01:03 51°12.734 2°48.869 8.665737 3.509722 32.833951  
2002-03-20 10:02:03 51°12.737 2°48.892 8.708667 3.509221 32.82493  
2002-03-20 10:03:02 51°12.741 2°48.912 8.676699 3.507818 32.805018  
2002-03-20 10:04:02 51°12.745 2°48.93 8.673779 3.50882 32.81009  
2002-03-20 10:05:03 51°12.749 2°48.948 8.675694 3.50842 32.809738  
2002-03-20 10:06:01 51°12.752 2°48.967 8.721201 3.508219 32.803846  
2002-03-20 10:07:03 51°12.756 2°48.994 8.681247 3.50852 32.800872  
2002-03-20 10:08:03 51°12.761 2°49.025 8.710437 3.507317 32.789147  
2002-03-20 10:09:03 51°12.765 2°49.059 8.720101 3.502708 32.704071  
2002-03-20 10:10:03 51°12.757 2°49.094 8.755011 3.500905 32.689159  
2002-03-20 10:11:03 51°12.754 2°49.126 8.72761 3.498901 32.664589  
2002-03-20 10:12:03 51°12.756 2°49.158 8.731198 3.498701 32.651907  
2002-03-20 10:13:02 51°12.759 2°49.191 8.730528 3.496797 32.635202  
2002-03-20 10:14:03 51°12.764 2°49.225 8.733637 3.499502 32.660216  
2002-03-20 10:15:03 51°12.771 2°49.257 8.733541 3.499101 32.651519  
2002-03-20 10:16:03 51°12.78 2°49.287 8.777048 3.502007 32.684667  
2002-03-20 10:17:03 51°12.79 2°49.317 8.74038 3.502608 32.684836  
2002-03-20 10:18:03 51°12.8 2°49.348 8.735167 3.504512 32.709876  
2002-03-20 10:19:03 51°12.808 2°49.381 8.729715 3.505012 32.714312  
2002-03-20 10:20:03 51°12.809 2°49.416 8.73555 3.506816 32.738324  
2002-03-20 10:21:03 51°12.801 2°49.451 8.73378 3.511525 32.785643  
2002-03-20 10:22:03 51°12.786 2°49.48 8.747552 3.514931 32.817173  
2002-03-20 10:23:02 51°12.769 2°49.501 8.751712 3.516434 32.820586  
2002-03-20 10:24:03 51°12.748 2°49.518 8.790715 3.516233 32.813185  
2002-03-20 10:25:03 51°12.723 2°49.532 8.790572 3.511725 32.768724  
2002-03-20 10:26:03 51°12.695 2°49.54 8.799076 3.510523 32.753225  
2002-03-20 10:27:03 51°12.668 2°49.536 8.760509 3.510623 32.747434  
2002-03-20 10:28:03 51°12.643 2°49.527 8.767201 3.509621 32.740845  
2002-03-20 10:29:03 51°12.62 2°49.515 8.766532 3.507918 32.713341  
2002-03-20 10:30:03 51°12.599 2°49.499 8.772794 3.508719 32.720886  
2002-03-20 10:31:03 51°12.579 2°49.482 8.859295 3.508619 32.715302  
2002-03-20 10:32:03 51°12.558 2°49.465 8.779389 3.507016 32.693399  
2002-03-20 10:33:03 51°12.539 2°49.449 8.781731 3.50912 32.715945  
2002-03-20 10:34:03 51°12.521 2°49.437 8.825348 3.508218 32.704335  
2002-03-20 10:35:03 51°12.504 2°49.427 8.821193 3.50942 32.714513  
2002-03-20 10:36:03 51°12.485 2°49.417 8.774706 3.509721 32.725202  
2002-03-20 10:37:03 51°12.463 2°49.404 8.785363 3.509721 32.728234  
2002-03-20 10:38:02 51°12.441 2°49.385 8.793821 3.510622 32.723933  
2002-03-20 10:39:03 51°12.421 2°49.363 8.796592 3.510222 32.721299  
2002-03-20 10:40:03 51°12.403 2°49.343 8.840104 3.510722 32.719669  
2002-03-20 10:41:03 51°12.388 2°49.33 8.788565 3.508919 32.700998  
2002-03-20 10:42:03 51°12.373 2°49.32 8.855524 3.507216 32.687149  
2002-03-20 10:43:03 51°12.359 2°49.313 8.729093 3.508419 32.723836  
2002-03-20 10:44:03 51°12.334 2°49.302 8.75415 3.505012 32.71507  
2002-03-20 10:45:03 51°12.316 2°49.171 8.818949 3.508318 32.697045  
2002-03-20 10:46:03 51°12.407 2°49.018 8.83848 3.508218 32.686173  
2002-03-20 10:47:03 51°12.52 2°48.893 8.839197 3.512425 32.704758  
2002-03-20 10:48:02 51°12.562 2°48.893 8.773654 3.516133 32.77645  
2002-03-20 10:49:02 51°12.564 2°48.906 8.790524 3.52004 32.843527  
2002-03-20 10:50:03 51°12.565 2°48.919 8.80266 3.519139 32.831898  
2002-03-20 10:51:03 51°12.565 2°48.932 8.821098 3.522945 32.831819  
2002-03-20 10:52:03 51°12.568 2°48.941 8.781827 3.524648 32.83958  
2002-03-20 10:53:03 51°12.572 2°48.947 8.889884 3.523547 32.857047  
2002-03-20 10:54:03 51°12.576 2°48.949 8.760796 3.520541 32.843394  
2002-03-20 10:55:03 51°12.581 2°48.946 8.772842 3.522345 32.864372  
2002-03-20 10:56:03 51°12.585 2°48.939 8.81016 3.522846 32.867281  
2002-03-20 10:57:02 51°12.588 2°48.93 8.808727 3.523146 32.868113  
2002-03-20 10:58:03 51°12.615 2°48.95 8.792961 3.523146 32.872681  
2002-03-20 10:59:02 51°12.631 2°49.043 8.744253 3.521744 32.870323  
2002-03-20 11:00:03 51°12.615 2°49.127 8.758166 3.524048 32.899559  
2002-03-20 11:01:03 51°12.579 2°49.173 8.804475 3.523847 32.881475  
2002-03-20 11:02:03 51°12.533 2°49.194 8.815892 3.522345 32.865894  
2002-03-20 11:03:01 51°12.484 2°49.192 8.783882 3.51984 32.834604  
2002-03-20 11:04:02 51°12.429 2°49.155 8.794872 3.517736 32.796088  
2002-03-20 11:05:03 51°12.384 2°49.08 8.774275 3.515932 32.781203  
2002-03-20 11:06:02 51°12.356 2°48.986 8.760222 3.51453 32.780335  
2002-03-20 11:07:03 51°12.335 2°48.895 8.726941 3.513428 32.793221  
2002-03-20 11:08:03 51°12.318 2°48.834 8.821575 3.512126 32.795681  
2002-03-20 11:09:03 51°12.301 2°48.79 8.76505 3.513528 32.804906  
2002-03-20 11:10:03 51°12.282 2°48.749 8.761608 3.513428 32.799304  
2002-03-20 11:11:03 51°12.265 2°48.694 8.774849 3.51453 32.787169  
2002-03-20 11:12:02 51°12.246 2°48.635 8.718283 3.51433 32.785852  
2002-03-20 11:13:03 51°12.222 2°48.572 8.741097 3.511525 32.790205  
2002-03-20 11:14:03 51°12.197 2°48.508 8.740667 3.512326 32.781034  
2002-03-20 11:15:03 51°12.173 2°48.443 8.78608 3.512426 32.791194  
2002-03-20 11:16:03 51°12.149 2°48.376 8.773511 3.512226 32.767842  
2002-03-20 11:17:03 51°12.125 2°48.306 8.766962 3.512626 32.762887  
2002-03-20 11:18:03 51°12.1 2°48.236 8.728423 3.510723 32.775809  
2002-03-20 11:19:03 51°12.073 2°48.169 8.809825 3.510122 32.761978  
2002-03-20 11:20:03 51°12.045 2°48.104 8.779819 3.511023 32.747035  
2002-03-20 11:21:03 51°12.016 2°48.039 8.876429 3.510923 32.739172  
2002-03-20 11:22:03 51°11.999 2°47.969 8.791336 3.512025 32.717253  
2002-03-20 11:23:03 51°12.006 2°47.904 8.805956 3.511223 32.708202  
2002-03-20 11:24:03 51°12.028 2°47.854 8.817277 3.510322 32.720821  
2002-03-20 11:25:03 51°12.06 2°47.811 8.830267 3.512826 32.714954  
2002-03-20 11:26:03 51°12.092 2°47.779 8.835711 3.507416 32.648418  
2002-03-20 11:27:03 51°12.126 2°47.772 8.811211 3.519438 32.775041  
2002-03-20 11:28:03 51°12.155 2°47.79 8.872373 3.521342 32.809907  
2002-03-20 11:29:03 51°12.175 2°47.834 8.769974 3.523947 32.851313  
2002-03-20 11:30:03 51°12.186 2°47.889 8.775614 3.522645 32.87815  
2002-03-20 11:31:03 51°12.198 2°47.94 8.761274 3.524048 32.869847  
2002-03-20 11:32:02 51°12.205 2°47.99 8.741527 3.523747 32.881198  
2002-03-20 11:33:01 51°12.2 2°48.04 8.769305 3.522044 32.890972  
2002-03-20 11:34:03 51°12.189 2°48.094 8.716656 3.521343 32.883695  
2002-03-20 11:35:03 51°12.18 2°48.146 8.730145 3.51964 32.878984  
2002-03-20 11:36:03 51°12.176 2°48.199 8.751377 3.51964 32.858404  
2002-03-20 11:37:03 51°12.175 2°48.249 8.762517 3.519539 32.842899  
2002-03-20 11:38:01 51°12.176 2°48.298 8.802564 3.519239 32.833697  
2002-03-20 11:39:03 51°12.176 2°48.353 8.757258 3.517936 32.825519  
2002-03-20 11:40:02 51°12.166 2°48.405 8.755346 3.516834 32.819417  
2002-03-20 11:41:01 51°12.145 2°48.45 8.744636 3.516434 32.817544  
2002-03-20 11:42:03 51°12.114 2°48.483 8.80352 3.515131 32.797199  
2002-03-20 11:43:03 51°12.08 2°48.497 8.764094 3.51473 32.784689  
2002-03-20 11:44:03 51°12.043 2°48.501 8.814698 3.514029 32.776662  
2002-03-20 11:45:03 51°12.004 2°48.498 8.772459 3.513127 32.762007  
2002-03-20 11:46:03 51°11.974 2°48.489 8.776044 3.512927 32.758413  
2002-03-20 11:47:03 51°11.944 2°48.474 8.771169 3.511925 32.748793  
2002-03-20 11:48:03 51°11.914 2°48.441 8.764811 3.510422 32.73929  
2002-03-20 11:49:03 51°11.896 2°48.373 8.771025 3.509721 32.732782  
2002-03-20 11:50:03 51°11.903 2°48.286 8.764429 3.508218 32.71797  
2002-03-20 11:51:03 51°11.928 2°48.2 8.76572 3.50912 32.726554  
2002-03-20 11:52:03 51°11.959 2°48.116 8.757784 3.511124 32.748073  
2002-03-20 11:53:03 51°11.989 2°48.048 8.75066 3.513027 32.778428  
2002-03-20 11:54:02 51°12.005 2°47.998 8.754294 3.51463 32.800366  
2002-03-20 11:55:03 51°12.015 2°47.957 8.764572 3.515532 32.798313  
2002-03-20 11:56:03 51°12.022 2°47.919 8.778386 3.517335 32.817767  
2002-03-20 11:57:01 51°12.029 2°47.87 8.751951 3.518437 32.820067  
2002-03-20 11:58:03 51°12.035 2°47.821 8.760939 3.518337 32.838043  
2002-03-20 11:59:01 51°12.037 2°47.772 8.763473 3.51964 32.839373  
2002-03-20 12:00:03 51°12.039 2°47.718 8.755537 3.520541 32.846438  
2002-03-20 12:01:03 51°12.041 2°47.664 8.820381 3.521443 32.866444  
2002-03-20 12:02:03 51°12.041 2°47.609 8.793391 3.521944 32.875449  
2002-03-20 12:03:03 51°12.04 2°47.552 8.750086 3.522946 32.884316  
2002-03-20 12:04:02 51°12.039 2°47.495 8.752812 3.523447 32.893323  
2002-03-20 12:05:03 51°12.036 2°47.435 8.762373 3.525551 32.906758  
2002-03-20 12:06:02 51°12.033 2°47.377 8.752381 3.525551 32.910571  
2002-03-20 12:07:03 51°12.029 2°47.316 8.756541 3.526853 32.927897  
2002-03-20 12:08:03 51°12.025 2°47.256 8.788708 3.526953 32.923595  
2002-03-20 12:09:03 51°12.021 2°47.196 8.738658 3.527354 32.931568  
2002-03-20 12:10:03 51°12.016 2°47.134 8.746166 3.526152 32.930544  
2002-03-20 12:11:03 51°12.011 2°47.072 8.747983 3.527254 32.932055  
2002-03-20 12:12:03 51°12.004 2°47.006 8.74497 3.527655 32.937739  
2002-03-20 12:13:01 51°11.995 2°46.945 8.786367 3.528356 32.94578  
2002-03-20 12:14:03 51°11.987 2°46.89 8.782782 3.528657 32.948135  
2002-03-20 12:15:03 51°11.98 2°46.842 8.75678 3.529959 32.959357  
2002-03-20 12:16:03 51°11.976 2°46.798 8.772077 3.53046 32.953098  
2002-03-20 12:17:03 51°11.972 2°46.759 8.746261 3.531161 32.964191  
2002-03-20 12:18:03 51°11.968 2°46.724 8.732967 3.530661 32.971219  
2002-03-20 12:19:03 51°11.963 2°46.682 8.782352 3.53056 32.976295  
2002-03-20 12:20:02 51°11.952 2°46.633 8.759457 3.531863 32.973759  
2002-03-20 12:21:03 51°11.929 2°46.596 8.787609 3.531763 32.974248  
2002-03-20 12:22:03 51°11.898 2°46.583 8.731724 3.532264 32.98862  
2002-03-20 12:23:03 51°11.864 2°46.592 8.78025 3.530661 32.9781  
2002-03-20 12:24:03 51°11.831 2°46.618 8.72938 3.529258 32.954372  
2002-03-20 12:25:03 51°11.805 2°46.656 8.788326 3.526553 32.942341  
2002-03-20 12:26:03 51°11.789 2°46.704 8.708141 3.522746 32.924972  
2002-03-20 12:27:03 51°11.779 2°46.758 8.75917 3.522846 32.910736  
2002-03-20 12:28:03 51°11.771 2°46.815 8.713403 3.522245 32.90984  
2002-03-20 12:29:03 51°11.759 2°46.872 8.740858 3.523046 32.908236  
2002-03-20 12:30:01 51°11.739 2°46.922 8.820668 3.522245 32.896102  
2002-03-20 12:31:03 51°11.715 2°46.962 8.748604 3.522746 32.888335  
2002-03-20 12:32:03 51°11.689 2°46.993 8.741145 3.521844 32.872886  
2002-03-20 12:33:03 51°11.629 2°47.046 8.744827 3.51994 32.866855  
2002-03-20 12:34:03 51°11.562 2°47.017 8.750995 3.515632 32.806952  
2002-03-20 12:35:02 51°11.524 2°46.995 8.766198 3.511625 32.76313  
2002-03-20 12:36:03 51°11.488 2°46.987 8.773654 3.510723 32.743162  
2002-03-20 12:37:03 51°11.45 2°47.033 8.787896 3.50932 32.726356  
2002-03-20 12:38:03 51°11.427 2°47.127 8.855715 3.509119 32.700802  
2002-03-20 12:39:03 51°11.435 2°47.236 8.847982 3.509119 32.675849  
2002-03-20 12:40:03 51°11.454 2°47.308 8.855047 3.50962 32.662905  
2002-03-20 12:41:03 51°11.453 2°47.315 8.824154 3.50982 32.664977  
2002-03-20 12:42:03 51°11.454 2°47.329 8.90286 3.509019 32.663484  
2002-03-20 12:43:03 51°11.456 2°47.347 8.852755 3.511223 32.665137  
2002-03-20 12:44:03 51°11.461 2°47.365 8.912972 3.510622 32.667225  
2002-03-20 12:45:03 51°11.467 2°47.382 8.849652 3.510021 32.669313  
2002-03-20 12:46:03 51°11.475 2°47.396 8.849127 3.511323 32.669191  
2002-03-20 12:47:03 51°11.484 2°47.407 8.885734 3.511223 32.673439  
2002-03-20 12:48:03 51°11.491 2°47.416 8.872945 3.511523 32.677301  
2002-03-20 12:49:03 51°11.499 2°47.423 8.870464 3.511724 32.689946  
2002-03-20 12:50:01 51°11.505 2°47.428 8.837573 3.512125 32.697113  
2002-03-20 12:51:01 51°11.51 2°47.433 8.881678 3.513928 32.710473  
2002-03-20 12:52:03 51°11.514 2°47.439 8.878624 3.51533 32.70986  
2002-03-20 12:53:03 51°11.519 2°47.445 8.925085 3.518436 32.71401  
2002-03-20 12:54:03 51°11.6 2°47.531 8.80844 3.516633 32.708214  
2002-03-20 12:55:03 51°11.714 2°47.766 8.818519 3.516433 32.765912  
2002-03-20 12:56:03 51°11.821 2°48.044 8.955881 3.516333 32.755024  
2002-03-20 12:57:03 51°11.94 2°48.335 8.86908 3.518236 32.746705  
2002-03-20 12:58:03 51°12.059 2°48.629 9.064648 3.518737 32.727688  
2002-03-20 12:59:03 51°12.178 2°48.919 8.932046 3.511421 32.472275  
2002-03-20 13:00:01 51°12.293 2°49.2 9.023906 3.497296 32.456054  
2002-03-20 13:01:03 51°12.414 2°49.503 8.896182 3.481066 32.256869  
2002-03-20 13:02:03 51°12.534 2°49.793 8.840963 3.479564 32.316542  
2002-03-20 13:03:03 51°12.651 2°50.087 8.938292 3.468845 32.223863  
2002-03-20 13:04:03 51°12.77 2°50.378 8.961029 3.458826 32.093885  
2002-03-20 13:05:03 51°12.887 2°50.67 8.834995 3.448507 31.969187  
2002-03-20 13:06:03 51°13.006 2°50.963 8.797786 3.446906 32.02727  
2002-03-20 13:07:03 51°13.126 2°51.254 8.802516 3.429975 31.844634  
2002-03-20 13:08:03 51°13.241 2°51.55 8.796688 3.422763 31.781348  
2002-03-20 13:09:03 51°13.36 2°51.845 8.855095 3.417053 31.737928  
2002-03-20 13:10:03 51°13.477 2°52.138 8.956024 3.394213 31.45613  
2002-03-20 13:11:03 51°13.595 2°52.43 8.992284 3.38109 31.258512  
2002-03-20 13:12:03 51°13.715 2°52.724 8.888358 3.379487 31.218356  
2002-03-20 13:13:03 51°13.832 2°53.017 8.893987 3.382193 31.346344  
2002-03-20 13:14:03 51°13.95 2°53.311 8.870702 3.370573 31.196687  
2002-03-20 13:15:03 51°14.067 2°53.606 8.907821 3.361859 31.123059  
2002-03-20 13:16:03 51°14.177 2°53.893 8.899998 3.349538 30.97876  
2002-03-20 13:17:03 51°14.288 2°54.161 8.845738 3.353545 31.047054  
2002-03-20 13:18:03 51°14.361 2°54.447 8.735454 3.36807 31.263312  
2002-03-20 13:19:03 51°14.393 2°54.748 8.703213 3.382395 31.458855  
2002-03-20 13:20:03 51°14.369 2°55.031 8.855811 3.366969 31.293256  
2002-03-20 13:21:03 51°14.278 2°55.227 9.036712 2.811896 25.3966  
2002-03-20 13:22:03 51°14.199 2°55.341 10.115219 2.25535 19.951904  
2002-03-20 13:23:03 51°14.144 2°55.394 10.017529 1.938581 16.884887  
2002-03-20 13:24:03 51°14.089 2°55.436 10.25146 1.950762 16.982386  
2002-03-20 13:25:03 51°14.023 2°55.487 10.276545 1.962245 17.087146  
2002-03-20 13:26:03 51°13.938 2°55.554 9.905978 2.030953 17.753498  
2002-03-20 13:27:03 51°13.816 2°55.644 10.044062 2.033051 17.778785  
2002-03-20 13:28:03 51°13.748 2°55.718 10.338025 2.045136 17.905216  
2002-03-20 13:29:02 51°13.72 2°55.781 10.279347 1.40898 11.871797  
2002-03-20 13:30:03 51°13.702 2°55.836 10.268465 1.260644 10.508259  
2002-03-20 13:31:02 51°13.694 2°55.883 12.516749 0.0268 0.181716